createdAt,value
2022-08-08T00:01:06.505Z,1.80
2022-08-08T00:03:48.147Z,1.70
2022-08-08T00:06:28.413Z,1.70
2022-08-08T00:09:07.941Z,2.30
2022-08-08T00:12:03.020Z,2.10
2022-08-08T00:14:48.455Z,2.40
2022-08-08T00:18:01.783Z,2.53
2022-08-08T00:20:37.240Z,2.25
2022-08-08T00:23:08.471Z,2.20
2022-08-08T00:25:46.567Z,2.20
2022-08-08T00:28:35.916Z,2.28
2022-08-08T00:32:20.086Z,2.33
2022-08-08T00:34:30.534Z,2.53
2022-08-08T00:37:16.298Z,2.05
2022-08-08T00:41:12.734Z,2.47
2022-08-08T00:43:40.314Z,2.05
2022-08-08T00:46:56.902Z,1.92
2022-08-08T00:49:59.301Z,2.08
2022-08-08T00:52:53.953Z,2.10
2022-08-08T00:55:54.758Z,2.75
2022-08-08T00:59:00.092Z,1.83
2022-08-08T01:01:39.027Z,2.10
2022-08-08T01:04:54.262Z,2.28
2022-08-08T01:08:03.076Z,2.20
2022-08-08T01:11:08.278Z,2.08
2022-08-08T01:14:53.676Z,1.90
2022-08-08T01:18:02.204Z,1.77
2022-08-08T01:20:55.171Z,1.77
2022-08-08T01:24:05.706Z,2.00
2022-08-08T01:27:44.175Z,1.90
2022-08-08T01:30:45.935Z,2.03
2022-08-08T01:34:00.564Z,1.48
2022-08-08T01:37:06.307Z,1.40
2022-08-08T01:40:02.975Z,1.40
2022-08-08T01:42:40.535Z,1.30
2022-08-08T01:45:33.721Z,1.25
2022-08-08T01:48:16.744Z,1.40
2022-08-08T01:51:31.560Z,1.42
2022-08-08T01:55:45.332Z,1.20
2022-08-08T01:57:22.142Z,1.30
2022-08-08T02:00:16.036Z,1.50
2022-08-08T02:03:56.121Z,1.23
2022-08-08T02:06:32.495Z,1.20
2022-08-08T02:09:17.471Z,1.30
2022-08-08T02:11:58.756Z,1.50
2022-08-08T02:14:56.077Z,1.27
2022-08-08T02:17:36.742Z,1.17
2022-08-08T02:21:01.139Z,1.38
2022-08-08T02:23:31.709Z,0.80
2022-08-08T02:26:10.248Z,1.10
2022-08-08T02:29:00.102Z,1.10
2022-08-08T02:32:00.489Z,1.02
2022-08-08T02:35:08.884Z,1.00
2022-08-08T02:37:56.833Z,1.17
2022-08-08T02:40:40.433Z,1.00
2022-08-08T02:44:39.100Z,1.15
2022-08-08T02:46:55.397Z,0.90
2022-08-08T02:49:58.842Z,1.30
